Meadville, Pennsylvania
Current Conditions -  °F | °C
As of 3:28 PM on Thursday 29 Jan 2015 (Local Time) from KGKJ Reporting Station
Moderate Snow Moderate Snow  
Wind Chill: 25°   Ceiling: 500
Heat Index: 33°   Visibility: 0.5mi
Dew Point: 30°   Wind: 9mph
Humidity: 89%   Direction: 190°S
Pressure: 29.73"   Gusts: 18mph
Location:  41.64°N, 80.15°W
Report Text: KGKJ 292028Z AUTO 19008G16KT 1/2SM SN FG BKN005 OVC009 01/M01 A2973 RMK AO2 P0002 T00061011 TSNO
Loading
Personal Weather Stations






























Interactive Weather Map New forecast layout! Learn more

10-Day Weather Forecast

Advertisements
Track Severe Weather on mobile